sensor_id;sensor_type;location;lat;lon;timestamp;P1;durP1;ratioP1;P2;durP2;ratioP2
7719;SDS011;3902;49.474;8.616;2022-11-04T00:01:23;6.30;;;4.10;;
7719;SDS011;3902;49.474;8.616;2022-11-04T00:03:49;4.97;;;4.17;;
7719;SDS011;3902;49.474;8.616;2022-11-04T00:06:16;4.57;;;4.17;;
7719;SDS011;3902;49.474;8.616;2022-11-04T00:08:42;4.30;;;3.53;;
7719;SDS011;3902;49.474;8.616;2022-11-04T00:11:12;4.30;;;3.90;;
7719;SDS011;3902;49.474;8.616;2022-11-04T00:13:57;5.70;;;3.30;;
7719;SDS011;3902;49.474;8.616;2022-11-04T00:16:22;4.50;;;3.53;;
7719;SDS011;3902;49.474;8.616;2022-11-04T00:19:06;3.10;;;2.80;;
7719;SDS011;3902;49.474;8.616;2022-11-04T00:21:31;3.27;;;2.97;;
7719;SDS011;3902;49.474;8.616;2022-11-04T00:24:16;3.43;;;3.13;;
7719;SDS011;3902;49.474;8.616;2022-11-04T00:27:00;3.33;;;2.90;;
7719;SDS011;3902;49.474;8.616;2022-11-04T00:29:44;3.60;;;3.10;;
7719;SDS011;3902;49.474;8.616;2022-11-04T00:32:09;2.73;;;2.43;;
7719;SDS011;3902;49.474;8.616;2022-11-04T00:34:54;3.40;;;3.10;;
7719;SDS011;3902;49.474;8.616;2022-11-04T00:37:20;3.20;;;2.13;;
7719;SDS011;3902;49.474;8.616;2022-11-04T00:39:45;2.77;;;2.27;;
7719;SDS011;3902;49.474;8.616;2022-11-04T00:42:11;2.47;;;2.27;;
7719;SDS011;3902;49.474;8.616;2022-11-04T00:44:36;3.10;;;2.80;;
7719;SDS011;3902;49.474;8.616;2022-11-04T00:47:02;2.40;;;2.20;;
7719;SDS011;3902;49.474;8.616;2022-11-04T00:49:28;2.30;;;2.10;;
7719;SDS011;3902;49.474;8.616;2022-11-04T00:51:53;3.27;;;1.90;;
7719;SDS011;3902;49.474;8.616;2022-11-04T00:54:19;1.90;;;1.80;;
7719;SDS011;3902;49.474;8.616;2022-11-04T00:56:44;2.53;;;2.30;;
7719;SDS011;3902;49.474;8.616;2022-11-04T00:59:12;2.40;;;1.60;;
7719;SDS011;3902;49.474;8.616;2022-11-04T01:01:38;2.10;;;1.90;;
7719;SDS011;3902;49.474;8.616;2022-11-04T01:04:03;2.10;;;1.77;;
7719;SDS011;3902;49.474;8.616;2022-11-04T01:06:29;1.70;;;1.60;;
7719;SDS011;3902;49.474;8.616;2022-11-04T01:08:59;1.90;;;1.80;;
7719;SDS011;3902;49.474;8.616;2022-11-04T01:11:26;2.50;;;2.07;;
7719;SDS011;3902;49.474;8.616;2022-11-04T01:13:53;2.00;;;1.63;;
7719;SDS011;3902;49.474;8.616;2022-11-04T01:16:19;1.70;;;1.60;;
7719;SDS011;3902;49.474;8.616;2022-11-04T01:18:45;2.03;;;1.83;;
7719;SDS011;3902;49.474;8.616;2022-11-04T01:21:12;1.80;;;1.70;;
7719;SDS011;3902;49.474;8.616;2022-11-04T01:23:38;1.63;;;1.50;;
7719;SDS011;3902;49.474;8.616;2022-11-04T01:26:05;1.70;;;1.60;;
7719;SDS011;3902;49.474;8.616;2022-11-04T01:28:31;1.70;;;1.50;;
7719;SDS011;3902;49.474;8.616;2022-11-04T01:30:57;1.90;;;1.60;;
7719;SDS011;3902;49.474;8.616;2022-11-04T01:33:22;1.93;;;1.57;;
7719;SDS011;3902;49.474;8.616;2022-11-04T01:35:49;2.50;;;1.70;;
7719;SDS011;3902;49.474;8.616;2022-11-04T01:38:15;2.10;;;1.53;;
7719;SDS011;3902;49.474;8.616;2022-11-04T01:40:41;1.80;;;1.70;;
7719;SDS011;3902;49.474;8.616;2022-11-04T01:43:16;2.27;;;1.67;;
7719;SDS011;3902;49.474;8.616;2022-11-04T01:45:44;1.77;;;1.67;;
7719;SDS011;3902;49.474;8.616;2022-11-04T01:48:26;1.57;;;1.47;;
7719;SDS011;3902;49.474;8.616;2022-11-04T01:50:57;2.33;;;1.70;;
7719;SDS011;3902;49.474;8.616;2022-11-04T01:53:27;1.83;;;1.70;;
7719;SDS011;3902;49.474;8.616;2022-11-04T01:55:59;1.83;;;1.57;;
7719;SDS011;3902;49.474;8.616;2022-11-04T01:58:30;1.67;;;1.50;;
7719;SDS011;3902;49.474;8.616;2022-11-04T02:00:57;1.77;;;1.63;;
7719;SDS011;3902;49.474;8.616;2022-11-04T02:03:28;1.77;;;1.60;;
7719;SDS011;3902;49.474;8.616;2022-11-04T02:05:56;1.70;;;1.57;;
7719;SDS011;3902;49.474;8.616;2022-11-04T02:08:23;1.70;;;1.60;;
7719;SDS011;3902;49.474;8.616;2022-11-04T02:10:51;1.97;;;1.70;;
7719;SDS011;3902;49.474;8.616;2022-11-04T02:13:22;2.20;;;1.97;;
7719;SDS011;3902;49.474;8.616;2022-11-04T02:27:06;2.70;;;1.60;;
7719;SDS011;3902;49.474;8.616;2022-11-04T02:32:33;2.70;;;1.90;;
7719;SDS011;3902;49.474;8.616;2022-11-04T02:35:21;2.17;;;1.30;;
7719;SDS011;3902;49.474;8.616;2022-11-04T02:38:33;2.03;;;1.50;;
7719;SDS011;3902;49.474;8.616;2022-11-04T02:46:16;1.50;;;1.37;;
7719;SDS011;3902;49.474;8.616;2022-11-04T02:49:07;1.60;;;1.50;;
7719;SDS011;3902;49.474;8.616;2022-11-04T02:51:36;3.93;;;1.60;;
7719;SDS011;3902;49.474;8.616;2022-11-04T02:57:03;3.10;;;1.67;;
7719;SDS011;3902;49.474;8.616;2022-11-04T02:59:39;1.80;;;1.63;;
7719;SDS011;3902;49.474;8.616;2022-11-04T03:02:11;1.90;;;1.70;;
7719;SDS011;3902;49.474;8.616;2022-11-04T03:04:43;1.37;;;1.27;;
7719;SDS011;3902;49.474;8.616;2022-11-04T03:07:13;1.83;;;1.70;;
7719;SDS011;3902;49.474;8.616;2022-11-04T03:09:41;2.70;;;1.50;;
7719;SDS011;3902;49.474;8.616;2022-11-04T03:12:14;2.70;;;1.70;;
7719;SDS011;3902;49.474;8.616;2022-11-04T03:14:44;1.87;;;1.60;;
7719;SDS011;3902;49.474;8.616;2022-11-04T03:17:16;2.10;;;1.57;;
7719;SDS011;3902;49.474;8.616;2022-11-04T03:19:48;2.10;;;1.50;;
7719;SDS011;3902;49.474;8.616;2022-11-04T03:22:28;2.07;;;1.47;;
7719;SDS011;3902;49.474;8.616;2022-11-04T03:24:57;4.63;;;1.60;;
7719;SDS011;3902;49.474;8.616;2022-11-04T03:27:24;4.30;;;1.53;;
7719;SDS011;3902;49.474;8.616;2022-11-04T03:30:15;2.10;;;1.50;;
7719;SDS011;3902;49.474;8.616;2022-11-04T03:35:17;2.47;;;1.40;;
7719;SDS011;3902;49.474;8.616;2022-11-04T03:37:44;2.53;;;1.67;;
7719;SDS011;3902;49.474;8.616;2022-11-04T03:40:12;1.83;;;1.33;;
7719;SDS011;3902;49.474;8.616;2022-11-04T03:42:42;2.83;;;1.50;;
7719;SDS011;3902;49.474;8.616;2022-11-04T03:45:12;1.80;;;1.70;;
7719;SDS011;3902;49.474;8.616;2022-11-04T03:47:38;2.70;;;1.30;;
7719;SDS011;3902;49.474;8.616;2022-11-04T03:50:09;2.03;;;1.50;;
7719;SDS011;3902;49.474;8.616;2022-11-04T03:52:53;3.17;;;1.47;;
7719;SDS011;3902;49.474;8.616;2022-11-04T03:55:20;2.23;;;1.60;;
7719;SDS011;3902;49.474;8.616;2022-11-04T03:58:28;2.90;;;1.30;;
7719;SDS011;3902;49.474;8.616;2022-11-04T04:01:07;2.90;;;1.70;;
7719;SDS011;3902;49.474;8.616;2022-11-04T04:03:46;2.40;;;1.57;;
7719;SDS011;3902;49.474;8.616;2022-11-04T04:06:27;2.10;;;1.33;;
7719;SDS011;3902;49.474;8.616;2022-11-04T04:09:04;2.33;;;1.43;;
7719;SDS011;3902;49.474;8.616;2022-11-04T04:14:12;3.57;;;1.60;;
7719;SDS011;3902;49.474;8.616;2022-11-04T04:17:18;4.33;;;1.57;;
7719;SDS011;3902;49.474;8.616;2022-11-04T04:20:08;4.60;;;1.50;;
7719;SDS011;3902;49.474;8.616;2022-11-04T04:22:42;2.63;;;1.53;;
7719;SDS011;3902;49.474;8.616;2022-11-04T04:25:12;2.23;;;1.43;;
7719;SDS011;3902;49.474;8.616;2022-11-04T04:27:59;2.13;;;1.57;;
7719;SDS011;3902;49.474;8.616;2022-11-04T04:30:26;5.40;;;1.60;;
7719;SDS011;3902;49.474;8.616;2022-11-04T04:32:52;4.00;;;1.80;;
7719;SDS011;3902;49.474;8.616;2022-11-04T04:35:29;1.70;;;1.40;;
7719;SDS011;3902;49.474;8.616;2022-11-04T04:38:06;2.60;;;1.50;;
7719;SDS011;3902;49.474;8.616;2022-11-04T04:41:21;3.63;;;1.33;;
7719;SDS011;3902;49.474;8.616;2022-11-04T04:44:12;2.23;;;1.43;;
7719;SDS011;3902;49.474;8.616;2022-11-04T04:47:08;1.87;;;1.40;;
7719;SDS011;3902;49.474;8.616;2022-11-04T04:49:34;5.10;;;1.53;;
7719;SDS011;3902;49.474;8.616;2022-11-04T04:52:03;5.17;;;1.83;;
7719;SDS011;3902;49.474;8.616;2022-11-04T04:54:31;1.50;;;1.40;;
7719;SDS011;3902;49.474;8.616;2022-11-04T04:56:57;3.10;;;1.50;;
7719;SDS011;3902;49.474;8.616;2022-11-04T04:59:22;2.60;;;1.40;;
7719;SDS011;3902;49.474;8.616;2022-11-04T05:01:48;1.70;;;1.53;;
7719;SDS011;3902;49.474;8.616;2022-11-04T05:04:13;2.13;;;1.50;;
7719;SDS011;3902;49.474;8.616;2022-11-04T05:06:39;1.83;;;1.33;;
7719;SDS011;3902;49.474;8.616;2022-11-04T05:09:04;3.07;;;1.40;;
7719;SDS011;3902;49.474;8.616;2022-11-04T05:11:30;3.03;;;1.30;;
7719;SDS011;3902;49.474;8.616;2022-11-04T05:13:56;3.07;;;1.90;;
7719;SDS011;3902;49.474;8.616;2022-11-04T05:16:21;3.80;;;2.10;;
7719;SDS011;3902;49.474;8.616;2022-11-04T05:18:47;2.10;;;1.77;;
7719;SDS011;3902;49.474;8.616;2022-11-04T05:21:13;2.37;;;1.80;;
7719;SDS011;3902;49.474;8.616;2022-11-04T05:23:40;1.67;;;1.30;;
7719;SDS011;3902;49.474;8.616;2022-11-04T05:26:05;1.60;;;1.50;;
7719;SDS011;3902;49.474;8.616;2022-11-04T05:28:31;3.13;;;1.80;;
7719;SDS011;3902;49.474;8.616;2022-11-04T05:30:56;3.17;;;1.90;;
7719;SDS011;3902;49.474;8.616;2022-11-04T05:33:26;2.90;;;2.00;;
7719;SDS011;3902;49.474;8.616;2022-11-04T05:35:51;3.00;;;2.40;;
7719;SDS011;3902;49.474;8.616;2022-11-04T05:38:16;2.37;;;2.03;;
7719;SDS011;3902;49.474;8.616;2022-11-04T05:40:42;2.33;;;1.97;;
7719;SDS011;3902;49.474;8.616;2022-11-04T05:43:07;2.60;;;1.90;;
7719;SDS011;3902;49.474;8.616;2022-11-04T05:45:33;4.00;;;2.33;;
7719;SDS011;3902;49.474;8.616;2022-11-04T05:47:59;4.50;;;2.03;;
7719;SDS011;3902;49.474;8.616;2022-11-04T05:50:26;2.50;;;1.60;;
7719;SDS011;3902;49.474;8.616;2022-11-04T05:52:52;3.33;;;1.60;;
7719;SDS011;3902;49.474;8.616;2022-11-04T05:55:17;2.13;;;1.70;;
7719;SDS011;3902;49.474;8.616;2022-11-04T05:57:43;4.20;;;1.87;;
7719;SDS011;3902;49.474;8.616;2022-11-04T06:00:09;2.70;;;1.90;;
7719;SDS011;3902;49.474;8.616;2022-11-04T06:02:35;2.47;;;1.70;;
7719;SDS011;3902;49.474;8.616;2022-11-04T06:05:00;5.80;;;2.57;;
7719;SDS011;3902;49.474;8.616;2022-11-04T06:07:26;2.97;;;2.10;;
7719;SDS011;3902;49.474;8.616;2022-11-04T06:09:51;3.40;;;1.80;;
7719;SDS011;3902;49.474;8.616;2022-11-04T06:12:17;4.33;;;1.90;;
7719;SDS011;3902;49.474;8.616;2022-11-04T06:14:42;5.50;;;2.53;;
7719;SDS011;3902;49.474;8.616;2022-11-04T06:17:12;2.73;;;2.00;;
7719;SDS011;3902;49.474;8.616;2022-11-04T06:19:39;4.27;;;2.53;;
7719;SDS011;3902;49.474;8.616;2022-11-04T06:22:05;4.00;;;2.80;;
7719;SDS011;3902;49.474;8.616;2022-11-04T06:24:30;2.40;;;2.07;;
7719;SDS011;3902;49.474;8.616;2022-11-04T06:26:56;4.57;;;2.30;;
7719;SDS011;3902;49.474;8.616;2022-11-04T06:29:21;2.47;;;1.90;;
7719;SDS011;3902;49.474;8.616;2022-11-04T06:31:47;3.43;;;2.17;;
7719;SDS011;3902;49.474;8.616;2022-11-04T06:34:12;4.03;;;2.33;;
7719;SDS011;3902;49.474;8.616;2022-11-04T06:36:38;2.60;;;1.70;;
7719;SDS011;3902;49.474;8.616;2022-11-04T06:39:03;2.90;;;1.77;;
7719;SDS011;3902;49.474;8.616;2022-11-04T06:41:29;4.80;;;2.33;;
7719;SDS011;3902;49.474;8.616;2022-11-04T06:43:55;2.80;;;1.93;;
7719;SDS011;3902;49.474;8.616;2022-11-04T06:46:30;2.90;;;2.30;;
7719;SDS011;3902;49.474;8.616;2022-11-04T06:49:00;3.40;;;2.07;;
7719;SDS011;3902;49.474;8.616;2022-11-04T06:51:26;3.30;;;2.07;;
7719;SDS011;3902;49.474;8.616;2022-11-04T06:53:52;2.03;;;1.83;;
7719;SDS011;3902;49.474;8.616;2022-11-04T06:56:17;1.80;;;1.53;;
7719;SDS011;3902;49.474;8.616;2022-11-04T06:58:46;2.53;;;2.03;;
7719;SDS011;3902;49.474;8.616;2022-11-04T07:01:15;3.63;;;1.80;;
7719;SDS011;3902;49.474;8.616;2022-11-04T07:03:42;3.70;;;2.10;;
7719;SDS011;3902;49.474;8.616;2022-11-04T07:06:09;1.70;;;1.50;;
7719;SDS011;3902;49.474;8.616;2022-11-04T07:08:35;1.87;;;1.60;;
7719;SDS011;3902;49.474;8.616;2022-11-04T07:11:01;3.33;;;1.80;;
7719;SDS011;3902;49.474;8.616;2022-11-04T07:13:27;6.20;;;1.50;;
7719;SDS011;3902;49.474;8.616;2022-11-04T07:15:52;2.70;;;1.57;;
7719;SDS011;3902;49.474;8.616;2022-11-04T07:18:18;3.03;;;1.30;;
7719;SDS011;3902;49.474;8.616;2022-11-04T07:20:43;4.30;;;1.50;;
7719;SDS011;3902;49.474;8.616;2022-11-04T07:23:09;2.10;;;1.50;;
7719;SDS011;3902;49.474;8.616;2022-11-04T07:25:35;3.80;;;1.53;;
7719;SDS011;3902;49.474;8.616;2022-11-04T07:28:00;2.20;;;1.47;;
7719;SDS011;3902;49.474;8.616;2022-11-04T07:30:26;2.17;;;1.60;;
7719;SDS011;3902;49.474;8.616;2022-11-04T07:32:51;1.70;;;1.57;;
7719;SDS011;3902;49.474;8.616;2022-11-04T07:35:17;5.73;;;2.10;;
7719;SDS011;3902;49.474;8.616;2022-11-04T07:37:42;5.03;;;2.00;;
7719;SDS011;3902;49.474;8.616;2022-11-04T07:40:08;2.60;;;1.50;;
7719;SDS011;3902;49.474;8.616;2022-11-04T07:42:34;1.60;;;1.40;;
7719;SDS011;3902;49.474;8.616;2022-11-04T07:45:00;2.60;;;1.40;;
7719;SDS011;3902;49.474;8.616;2022-11-04T07:47:28;2.23;;;1.63;;
7719;SDS011;3902;49.474;8.616;2022-11-04T07:49:54;3.07;;;1.60;;
7719;SDS011;3902;49.474;8.616;2022-11-04T07:52:20;3.83;;;1.67;;
7719;SDS011;3902;49.474;8.616;2022-11-04T07:54:45;3.70;;;2.07;;
7719;SDS011;3902;49.474;8.616;2022-11-04T07:57:11;2.60;;;2.10;;
7719;SDS011;3902;49.474;8.616;2022-11-04T07:59:36;3.00;;;1.57;;
7719;SDS011;3902;49.474;8.616;2022-11-04T08:02:02;1.90;;;1.70;;
7719;SDS011;3902;49.474;8.616;2022-11-04T08:04:28;1.83;;;1.37;;
7719;SDS011;3902;49.474;8.616;2022-11-04T08:06:53;2.90;;;1.40;;
7719;SDS011;3902;49.474;8.616;2022-11-04T08:09:19;36.57;;;2.87;;
7719;SDS011;3902;49.474;8.616;2022-11-04T08:11:44;2.67;;;2.00;;
7719;SDS011;3902;49.474;8.616;2022-11-04T08:14:10;2.97;;;1.87;;
7719;SDS011;3902;49.474;8.616;2022-11-04T08:16:35;3.40;;;1.60;;
7719;SDS011;3902;49.474;8.616;2022-11-04T08:19:01;2.20;;;1.70;;
7719;SDS011;3902;49.474;8.616;2022-11-04T08:21:27;3.10;;;1.53;;
7719;SDS011;3902;49.474;8.616;2022-11-04T08:23:54;1.83;;;1.60;;
7719;SDS011;3902;49.474;8.616;2022-11-04T08:26:20;1.60;;;1.50;;
7719;SDS011;3902;49.474;8.616;2022-11-04T08:28:47;1.77;;;1.40;;
7719;SDS011;3902;49.474;8.616;2022-11-04T08:31:20;1.60;;;1.50;;
7719;SDS011;3902;49.474;8.616;2022-11-04T08:33:52;2.87;;;1.60;;
7719;SDS011;3902;49.474;8.616;2022-11-04T08:36:23;2.70;;;1.77;;
7719;SDS011;3902;49.474;8.616;2022-11-04T08:38:53;2.30;;;1.53;;
7719;SDS011;3902;49.474;8.616;2022-11-04T08:41:20;2.83;;;1.83;;
7719;SDS011;3902;49.474;8.616;2022-11-04T08:43:48;2.00;;;1.40;;
7719;SDS011;3902;49.474;8.616;2022-11-04T08:46:14;1.60;;;1.30;;
7719;SDS011;3902;49.474;8.616;2022-11-04T08:48:42;2.40;;;1.60;;
7719;SDS011;3902;49.474;8.616;2022-11-04T08:51:14;1.63;;;1.20;;
7719;SDS011;3902;49.474;8.616;2022-11-04T08:53:47;1.67;;;1.57;;
7719;SDS011;3902;49.474;8.616;2022-11-04T08:56:18;1.90;;;1.70;;
7719;SDS011;3902;49.474;8.616;2022-11-04T08:58:46;1.60;;;1.40;;
7719;SDS011;3902;49.474;8.616;2022-11-04T09:01:12;2.30;;;1.50;;
7719;SDS011;3902;49.474;8.616;2022-11-04T09:03:39;1.90;;;1.70;;
7719;SDS011;3902;49.474;8.616;2022-11-04T09:06:06;2.20;;;1.67;;
7719;SDS011;3902;49.474;8.616;2022-11-04T09:08:36;5.40;;;1.63;;
7719;SDS011;3902;49.474;8.616;2022-11-04T09:11:05;1.70;;;1.20;;
7719;SDS011;3902;49.474;8.616;2022-11-04T09:13:31;1.93;;;1.50;;
7719;SDS011;3902;49.474;8.616;2022-11-04T09:15:57;5.47;;;1.80;;
7719;SDS011;3902;49.474;8.616;2022-11-04T09:18:22;4.97;;;2.13;;
7719;SDS011;3902;49.474;8.616;2022-11-04T09:20:48;3.30;;;2.13;;
7719;SDS011;3902;49.474;8.616;2022-11-04T09:23:13;2.43;;;1.70;;
7719;SDS011;3902;49.474;8.616;2022-11-04T09:25:39;2.50;;;2.07;;
7719;SDS011;3902;49.474;8.616;2022-11-04T09:28:05;3.10;;;1.87;;
7719;SDS011;3902;49.474;8.616;2022-11-04T09:30:30;6.20;;;2.40;;
7719;SDS011;3902;49.474;8.616;2022-11-04T09:32:56;3.00;;;1.73;;
7719;SDS011;3902;49.474;8.616;2022-11-04T09:35:22;1.80;;;1.70;;
7719;SDS011;3902;49.474;8.616;2022-11-04T09:37:48;3.07;;;1.60;;
7719;SDS011;3902;49.474;8.616;2022-11-04T09:40:15;3.63;;;1.67;;
7719;SDS011;3902;49.474;8.616;2022-11-04T09:42:57;4.47;;;2.27;;
7719;SDS011;3902;49.474;8.616;2022-11-04T09:45:27;5.47;;;1.80;;
7719;SDS011;3902;49.474;8.616;2022-11-04T09:47:56;3.07;;;1.53;;
7719;SDS011;3902;49.474;8.616;2022-11-04T09:50:26;4.90;;;1.63;;
7719;SDS011;3902;49.474;8.616;2022-11-04T09:52:58;3.90;;;1.90;;
7719;SDS011;3902;49.474;8.616;2022-11-04T09:55:44;2.30;;;1.77;;
7719;SDS011;3902;49.474;8.616;2022-11-04T09:58:14;2.50;;;1.87;;
7719;SDS011;3902;49.474;8.616;2022-11-04T10:00:41;3.30;;;2.27;;
7719;SDS011;3902;49.474;8.616;2022-11-04T10:03:21;1.90;;;1.50;;
7719;SDS011;3902;49.474;8.616;2022-11-04T10:11:52;1.63;;;1.53;;
7719;SDS011;3902;49.474;8.616;2022-11-04T10:14:38;4.30;;;1.90;;
7719;SDS011;3902;49.474;8.616;2022-11-04T10:17:38;2.30;;;1.60;;
7719;SDS011;3902;49.474;8.616;2022-11-04T10:20:18;3.90;;;1.70;;
7719;SDS011;3902;49.474;8.616;2022-11-04T10:22:56;4.43;;;1.70;;
7719;SDS011;3902;49.474;8.616;2022-11-04T10:25:24;2.20;;;1.50;;
7719;SDS011;3902;49.474;8.616;2022-11-04T10:27:57;1.67;;;1.40;;
7719;SDS011;3902;49.474;8.616;2022-11-04T10:30:24;1.90;;;1.30;;
7719;SDS011;3902;49.474;8.616;2022-11-04T10:33:01;1.90;;;1.70;;
7719;SDS011;3902;49.474;8.616;2022-11-04T10:35:50;3.03;;;1.70;;
7719;SDS011;3902;49.474;8.616;2022-11-04T10:38:24;3.03;;;1.70;;
7719;SDS011;3902;49.474;8.616;2022-11-04T10:40:57;3.20;;;1.73;;
7719;SDS011;3902;49.474;8.616;2022-11-04T10:43:32;3.93;;;1.60;;
7719;SDS011;3902;49.474;8.616;2022-11-04T10:46:15;2.30;;;1.67;;
7719;SDS011;3902;49.474;8.616;2022-11-04T10:48:44;3.27;;;1.80;;
7719;SDS011;3902;49.474;8.616;2022-11-04T10:51:15;1.83;;;1.60;;
7719;SDS011;3902;49.474;8.616;2022-11-04T10:53:46;2.70;;;1.70;;
7719;SDS011;3902;49.474;8.616;2022-11-04T10:56:21;3.23;;;2.03;;
7719;SDS011;3902;49.474;8.616;2022-11-04T10:58:55;3.93;;;1.50;;
7719;SDS011;3902;49.474;8.616;2022-11-04T11:03:54;2.37;;;1.80;;
7719;SDS011;3902;49.474;8.616;2022-11-04T11:08:53;3.47;;;1.80;;
7719;SDS011;3902;49.474;8.616;2022-11-04T11:11:59;2.23;;;1.70;;
7719;SDS011;3902;49.474;8.616;2022-11-04T11:16:53;2.57;;;2.00;;
7719;SDS011;3902;49.474;8.616;2022-11-04T11:19:20;2.00;;;1.50;;
7719;SDS011;3902;49.474;8.616;2022-11-04T11:21:58;3.43;;;1.40;;
7719;SDS011;3902;49.474;8.616;2022-11-04T11:24:24;2.53;;;1.60;;
7719;SDS011;3902;49.474;8.616;2022-11-04T11:26:55;1.50;;;1.30;;
7719;SDS011;3902;49.474;8.616;2022-11-04T11:29:26;2.87;;;1.60;;
7719;SDS011;3902;49.474;8.616;2022-11-04T11:31:54;1.80;;;1.70;;
7719;SDS011;3902;49.474;8.616;2022-11-04T11:34:23;1.60;;;1.30;;
7719;SDS011;3902;49.474;8.616;2022-11-04T11:36:54;2.77;;;1.60;;
7719;SDS011;3902;49.474;8.616;2022-11-04T11:39:24;2.10;;;1.70;;
7719;SDS011;3902;49.474;8.616;2022-11-04T11:41:59;3.27;;;1.60;;
7719;SDS011;3902;49.474;8.616;2022-11-04T11:44:36;2.60;;;1.30;;
7719;SDS011;3902;49.474;8.616;2022-11-04T11:47:33;1.77;;;1.67;;
7719;SDS011;3902;49.474;8.616;2022-11-04T11:52:43;4.57;;;1.60;;
7719;SDS011;3902;49.474;8.616;2022-11-04T11:55:17;2.20;;;1.30;;
7719;SDS011;3902;49.474;8.616;2022-11-04T12:00:43;6.00;;;1.70;;
7719;SDS011;3902;49.474;8.616;2022-11-04T12:03:28;1.60;;;1.50;;
7719;SDS011;3902;49.474;8.616;2022-11-04T12:14:04;2.87;;;1.60;;
7719;SDS011;3902;49.474;8.616;2022-11-04T12:19:21;3.10;;;1.77;;
7719;SDS011;3902;49.474;8.616;2022-11-04T12:22:09;4.33;;;1.73;;
7719;SDS011;3902;49.474;8.616;2022-11-04T12:27:16;4.13;;;1.80;;
7719;SDS011;3902;49.474;8.616;2022-11-04T12:32:34;3.60;;;1.80;;
7719;SDS011;3902;49.474;8.616;2022-11-04T12:35:08;3.00;;;1.90;;
7719;SDS011;3902;49.474;8.616;2022-11-04T12:40:34;2.60;;;1.57;;
7719;SDS011;3902;49.474;8.616;2022-11-04T12:43:13;3.67;;;1.90;;
7719;SDS011;3902;49.474;8.616;2022-11-04T12:45:48;3.90;;;1.90;;
7719;SDS011;3902;49.474;8.616;2022-11-04T12:48:43;2.90;;;1.37;;
7719;SDS011;3902;49.474;8.616;2022-11-04T12:51:23;4.83;;;2.00;;
7719;SDS011;3902;49.474;8.616;2022-11-04T12:56:45;2.90;;;1.70;;
7719;SDS011;3902;49.474;8.616;2022-11-04T12:59:36;2.77;;;1.63;;
7719;SDS011;3902;49.474;8.616;2022-11-04T13:02:29;3.30;;;1.70;;
7719;SDS011;3902;49.474;8.616;2022-11-04T13:05:06;3.23;;;1.60;;
7719;SDS011;3902;49.474;8.616;2022-11-04T13:07:53;2.70;;;1.47;;
7719;SDS011;3902;49.474;8.616;2022-11-04T13:10:22;3.83;;;2.07;;
7719;SDS011;3902;49.474;8.616;2022-11-04T13:12:55;1.80;;;1.27;;
7719;SDS011;3902;49.474;8.616;2022-11-04T13:15:25;2.30;;;1.40;;
7719;SDS011;3902;49.474;8.616;2022-11-04T13:17:57;4.40;;;1.67;;
7719;SDS011;3902;49.474;8.616;2022-11-04T13:20:28;1.60;;;1.20;;
7719;SDS011;3902;49.474;8.616;2022-11-04T13:23:01;1.67;;;1.30;;
7719;SDS011;3902;49.474;8.616;2022-11-04T13:25:38;1.50;;;1.40;;
7719;SDS011;3902;49.474;8.616;2022-11-04T13:28:12;2.00;;;1.50;;
7719;SDS011;3902;49.474;8.616;2022-11-04T13:42:05;3.20;;;1.40;;
7719;SDS011;3902;49.474;8.616;2022-11-04T13:44:44;3.00;;;1.67;;
7719;SDS011;3902;49.474;8.616;2022-11-04T13:47:22;3.97;;;1.97;;
7719;SDS011;3902;49.474;8.616;2022-11-04T13:53:19;2.33;;;1.50;;
7719;SDS011;3902;49.474;8.616;2022-11-04T13:55:48;4.70;;;1.73;;
7719;SDS011;3902;49.474;8.616;2022-11-04T13:58:18;1.90;;;1.40;;
7719;SDS011;3902;49.474;8.616;2022-11-04T14:01:11;2.43;;;1.40;;
7719;SDS011;3902;49.474;8.616;2022-11-04T14:06:48;1.70;;;1.20;;
7719;SDS011;3902;49.474;8.616;2022-11-04T14:14:35;2.43;;;1.30;;
7719;SDS011;3902;49.474;8.616;2022-11-04T14:17:02;1.87;;;1.40;;
7719;SDS011;3902;49.474;8.616;2022-11-04T14:22:30;2.10;;;1.33;;
7719;SDS011;3902;49.474;8.616;2022-11-04T14:25:00;3.03;;;1.30;;
7719;SDS011;3902;49.474;8.616;2022-11-04T14:27:39;3.33;;;1.20;;
7719;SDS011;3902;49.474;8.616;2022-11-04T14:30:11;3.90;;;1.43;;
7719;SDS011;3902;49.474;8.616;2022-11-04T14:32:57;3.30;;;1.60;;
7719;SDS011;3902;49.474;8.616;2022-11-04T14:35:25;2.13;;;1.60;;
7719;SDS011;3902;49.474;8.616;2022-11-04T14:37:53;3.33;;;1.77;;
7719;SDS011;3902;49.474;8.616;2022-11-04T14:40:24;4.97;;;1.97;;
7719;SDS011;3902;49.474;8.616;2022-11-04T14:42:55;3.07;;;1.60;;
7719;SDS011;3902;49.474;8.616;2022-11-04T14:45:27;2.07;;;1.43;;
7719;SDS011;3902;49.474;8.616;2022-11-04T14:48:17;2.80;;;1.80;;
7719;SDS011;3902;49.474;8.616;2022-11-04T14:50:45;1.93;;;1.60;;
7719;SDS011;3902;49.474;8.616;2022-11-04T14:53:35;2.20;;;1.30;;
7719;SDS011;3902;49.474;8.616;2022-11-04T14:56:15;2.43;;;1.70;;
7719;SDS011;3902;49.474;8.616;2022-11-04T14:58:53;2.03;;;1.50;;
7719;SDS011;3902;49.474;8.616;2022-11-04T15:01:31;2.07;;;1.53;;
7719;SDS011;3902;49.474;8.616;2022-11-04T15:04:32;2.00;;;1.40;;
7719;SDS011;3902;49.474;8.616;2022-11-04T15:06:53;2.83;;;1.60;;
7719;SDS011;3902;49.474;8.616;2022-11-04T15:09:20;2.23;;;1.60;;
7719;SDS011;3902;49.474;8.616;2022-11-04T15:11:58;2.23;;;1.53;;
7719;SDS011;3902;49.474;8.616;2022-11-04T15:14:52;2.30;;;1.57;;
7719;SDS011;3902;49.474;8.616;2022-11-04T15:17:18;3.00;;;1.80;;
7719;SDS011;3902;49.474;8.616;2022-11-04T15:19:47;2.90;;;1.63;;
7719;SDS011;3902;49.474;8.616;2022-11-04T15:22:15;2.00;;;1.60;;
7719;SDS011;3902;49.474;8.616;2022-11-04T15:24:41;3.70;;;1.70;;
7719;SDS011;3902;49.474;8.616;2022-11-04T15:27:12;2.70;;;1.50;;
7719;SDS011;3902;49.474;8.616;2022-11-04T15:29:40;2.70;;;1.70;;
7719;SDS011;3902;49.474;8.616;2022-11-04T15:32:20;2.73;;;1.53;;
7719;SDS011;3902;49.474;8.616;2022-11-04T15:34:47;4.03;;;1.90;;
7719;SDS011;3902;49.474;8.616;2022-11-04T15:37:13;2.80;;;1.63;;
7719;SDS011;3902;49.474;8.616;2022-11-04T15:39:45;2.70;;;1.97;;
7719;SDS011;3902;49.474;8.616;2022-11-04T15:42:15;4.00;;;2.10;;
7719;SDS011;3902;49.474;8.616;2022-11-04T15:45:14;4.13;;;1.97;;
7719;SDS011;3902;49.474;8.616;2022-11-04T15:47:46;3.63;;;1.90;;
7719;SDS011;3902;49.474;8.616;2022-11-04T15:50:23;4.30;;;2.00;;
7719;SDS011;3902;49.474;8.616;2022-11-04T15:52:51;2.80;;;1.80;;
7719;SDS011;3902;49.474;8.616;2022-11-04T15:55:20;1.80;;;1.37;;
7719;SDS011;3902;49.474;8.616;2022-11-04T15:57:48;4.37;;;1.90;;
7719;SDS011;3902;49.474;8.616;2022-11-04T16:02:45;3.00;;;2.50;;
7719;SDS011;3902;49.474;8.616;2022-11-04T16:07:39;3.10;;;2.30;;
7719;SDS011;3902;49.474;8.616;2022-11-04T16:12:56;5.67;;;3.10;;
7719;SDS011;3902;49.474;8.616;2022-11-04T16:15:33;5.97;;;2.93;;
7719;SDS011;3902;49.474;8.616;2022-11-04T16:18:03;3.77;;;2.70;;
7719;SDS011;3902;49.474;8.616;2022-11-04T16:20:30;5.37;;;2.97;;
7719;SDS011;3902;49.474;8.616;2022-11-04T16:22:59;3.50;;;2.70;;
7719;SDS011;3902;49.474;8.616;2022-11-04T16:25:29;3.67;;;2.97;;
7719;SDS011;3902;49.474;8.616;2022-11-04T16:27:58;6.57;;;3.33;;
7719;SDS011;3902;49.474;8.616;2022-11-04T16:30:29;4.87;;;3.10;;
7719;SDS011;3902;49.474;8.616;2022-11-04T16:33:05;4.13;;;2.50;;
7719;SDS011;3902;49.474;8.616;2022-11-04T16:35:34;4.67;;;2.70;;
7719;SDS011;3902;49.474;8.616;2022-11-04T16:37:59;2.73;;;2.30;;
7719;SDS011;3902;49.474;8.616;2022-11-04T16:40:25;2.80;;;2.53;;
7719;SDS011;3902;49.474;8.616;2022-11-04T16:42:51;2.83;;;2.20;;
7719;SDS011;3902;49.474;8.616;2022-11-04T16:45:29;3.90;;;2.27;;
7719;SDS011;3902;49.474;8.616;2022-11-04T16:47:56;4.77;;;2.40;;
7719;SDS011;3902;49.474;8.616;2022-11-04T16:50:23;5.43;;;2.10;;
7719;SDS011;3902;49.474;8.616;2022-11-04T16:52:49;4.20;;;2.30;;
7719;SDS011;3902;49.474;8.616;2022-11-04T16:55:15;2.57;;;2.13;;
7719;SDS011;3902;49.474;8.616;2022-11-04T16:57:42;2.93;;;2.63;;
7719;SDS011;3902;49.474;8.616;2022-11-04T17:00:19;5.67;;;2.40;;
7719;SDS011;3902;49.474;8.616;2022-11-04T17:02:48;2.63;;;2.43;;
7719;SDS011;3902;49.474;8.616;2022-11-04T17:05:15;3.90;;;2.27;;
7719;SDS011;3902;49.474;8.616;2022-11-04T17:07:41;3.50;;;2.50;;
7719;SDS011;3902;49.474;8.616;2022-11-04T17:10:11;3.70;;;2.27;;
7719;SDS011;3902;49.474;8.616;2022-11-04T17:12:41;4.33;;;2.30;;
7719;SDS011;3902;49.474;8.616;2022-11-04T17:15:06;2.87;;;2.30;;
7719;SDS011;3902;49.474;8.616;2022-11-04T17:17:32;3.40;;;2.33;;
7719;SDS011;3902;49.474;8.616;2022-11-04T17:19:58;3.03;;;2.30;;
7719;SDS011;3902;49.474;8.616;2022-11-04T17:22:24;3.63;;;2.10;;